Time;durP1;ratioP1;P1;durP2;ratioP2;P2;SDS_P1;SDS_P2;PMS_P1;PMS_P2;Temp;Humidity;BMP_temperature;BMP_pressure;BME280_temperature;BME280_humidity;BME280_pressure;Samples;Min_cycle;Max_cycle;Signal;HPM_P1;HPM_P2
2022/03/17 00:01:33;;;;;;;1.42;1.38;;;;;;;;;;5086900;28;20073;-72
2022/03/17 00:03:59;;;;;;;3.38;2.13;;;;;;;;;;5085703;28;20035;-73
2022/03/17 00:06:25;;;;;;;1.25;1.25;;;;;;;;;;5079558;28;20043;-72
2022/03/17 00:08:51;;;;;;;2.15;1.88;;;;;;;;;;5087039;28;20032;-73
2022/03/17 00:11:16;;;;;;;2.90;1.52;;;;;;;;;;5082626;28;20485;-73
2022/03/17 00:13:42;;;;;;;2.55;2.35;;;;;;;;;;5081109;28;20367;-73
2022/03/17 00:16:10;;;;;;;3.42;2.97;;;;;;;;;;5084424;28;20028;-72
2022/03/17 00:18:36;;;;;;;2.78;2.58;;;;;;;;;;5088603;28;20035;-72
2022/03/17 00:21:02;;;;;;;4.18;2.72;;;;;;;;;;5074376;28;20024;-73
2022/03/17 00:23:28;;;;;;;3.22;2.90;;;;;;;;;;5078623;28;20028;-73
2022/03/17 00:25:54;;;;;;;1.63;1.55;;;;;;;;;;5077355;28;20039;-73
2022/03/17 00:28:20;;;;;;;5.53;2.60;;;;;;;;;;5072928;28;20036;-72
2022/03/17 00:30:46;;;;;;;1.55;1.45;;;;;;;;;;5078510;28;20016;-73
2022/03/17 00:33:12;;;;;;;1.83;1.73;;;;;;;;;;5075052;28;20032;-72
2022/03/17 00:35:38;;;;;;;1.42;1.17;;;;;;;;;;5076238;28;20103;-72
2022/03/17 00:38:08;;;;;;;2.75;2.55;;;;;;;;;;5080863;28;20008;-73
2022/03/17 00:40:36;;;;;;;4.25;2.17;;;;;;;;;;5075058;28;20111;-72
2022/03/17 00:43:02;;;;;;;1.75;1.65;;;;;;;;;;5071653;28;20024;-73
2022/03/17 00:45:28;;;;;;;7.28;2.13;;;;;;;;;;5084424;28;20040;-72
2022/03/17 00:47:54;;;;;;;2.47;2.25;;;;;;;;;;5088310;28;20036;-73
2022/03/17 00:50:21;;;;;;;2.85;2.65;;;;;;;;;;5090446;28;20122;-73
2022/03/17 00:52:47;;;;;;;10.20;2.78;;;;;;;;;;5084592;28;20029;-73
2022/03/17 00:55:14;;;;;;;2.05;1.95;;;;;;;;;;5083968;28;20021;-73
2022/03/17 00:57:40;;;;;;;8.50;2.63;;;;;;;;;;5090602;28;20477;-73
2022/03/17 01:00:07;;;;;;;1.52;1.33;;;;;;;;;;5086810;28;20043;-73
2022/03/17 01:02:33;;;;;;;2.42;2.28;;;;;;;;;;5080673;28;20067;-73
2022/03/17 01:04:59;;;;;;;7.63;3.67;;;;;;;;;;5091054;28;20048;-72
2022/03/17 01:07:32;;;;;;;5.53;3.45;;;;;;;;;;5087086;28;20097;-73
2022/03/17 01:09:58;;;;;;;1.52;1.42;;;;;;;;;;5085614;28;20482;-73
2022/03/17 01:12:24;;;;;;;2.25;2.10;;;;;;;;;;5085114;28;20104;-73
2022/03/17 01:14:50;;;;;;;4.50;2.00;;;;;;;;;;5086147;28;20094;-72
2022/03/17 01:17:16;;;;;;;2.28;2.13;;;;;;;;;;5076328;28;20048;-73
2022/03/17 01:19:42;;;;;;;1.65;1.52;;;;;;;;;;5085588;28;20050;-73
2022/03/17 01:22:08;;;;;;;3.08;2.47;;;;;;;;;;5089367;28;20055;-73
2022/03/17 01:24:34;;;;;;;2.38;2.20;;;;;;;;;;5086340;28;20080;-73
2022/03/17 01:27:00;;;;;;;5.85;2.97;;;;;;;;;;5083268;28;20521;-72
2022/03/17 01:29:26;;;;;;;2.38;2.17;;;;;;;;;;5090747;28;20016;-73
2022/03/17 01:31:53;;;;;;;3.20;2.08;;;;;;;;;;5084662;28;20491;-73
2022/03/17 01:34:19;;;;;;;4.30;1.58;;;;;;;;;;5084254;28;20036;-72
2022/03/17 01:36:45;;;;;;;2.17;2.00;;;;;;;;;;5081748;28;20036;-73
2022/03/17 01:39:11;;;;;;;3.85;2.60;;;;;;;;;;5082088;28;20169;-74
2022/03/17 01:41:38;;;;;;;2.63;2.35;;;;;;;;;;5078753;28;20317;-74
2022/03/17 01:44:04;;;;;;;3.38;1.95;;;;;;;;;;5091267;28;20020;-74
2022/03/17 01:47:26;;;;;;;3.45;2.58;;;;;;;;;;5082186;28;20036;-74
2022/03/17 01:49:16;;;;;;;2.60;2.42;;;;;;;;;;5072349;28;20032;-73
2022/03/17 01:51:45;;;;;;;5.45;2.83;;;;;;;;;;5088793;28;20032;-73
2022/03/17 01:54:11;;;;;;;4.05;2.08;;;;;;;;;;5079069;28;20052;-73
2022/03/17 01:56:37;;;;;;;1.75;1.65;;;;;;;;;;5084071;28;20032;-73
2022/03/17 01:59:03;;;;;;;2.45;2.25;;;;;;;;;;5080412;28;20024;-74
2022/03/17 02:01:30;;;;;;;2.30;1.88;;;;;;;;;;5082613;28;20032;-74
2022/03/17 02:03:56;;;;;;;7.40;3.95;;;;;;;;;;5082506;28;20024;-74
2022/03/17 02:06:23;;;;;;;1.00;0.98;;;;;;;;;;5079292;28;20044;-74
2022/03/17 02:08:49;;;;;;;21.08;3.50;;;;;;;;;;5083493;28;20047;-74
2022/03/17 02:14:00;;;;;;;3.75;2.40;;;;;;;;;;5079688;28;20046;-74
2022/03/17 02:16:30;;;;;;;3.38;2.75;;;;;;;;;;5083524;28;20115;-74
2022/03/17 02:18:58;;;;;;;3.25;3.05;;;;;;;;;;5088991;28;20024;-73
2022/03/17 02:21:23;;;;;;;3.38;2.53;;;;;;;;;;5080359;28;20024;-73
2022/03/17 02:26:35;;;;;;;1.85;1.75;;;;;;;;;;5081848;28;20505;-73
2022/03/17 02:29:00;;;;;;;4.10;1.52;;;;;;;;;;5085463;28;20466;-74
2022/03/17 02:31:26;;;;;;;7.78;2.95;;;;;;;;;;5088181;28;20082;-74
2022/03/17 02:33:52;;;;;;;5.20;2.67;;;;;;;;;;5080547;28;20372;-74
2022/03/17 02:36:18;;;;;;;3.95;2.60;;;;;;;;;;5083151;28;20026;-73
2022/03/17 02:38:44;;;;;;;1.77;1.67;;;;;;;;;;5077771;28;20641;-74
2022/03/17 02:41:21;;;;;;;4.40;2.70;;;;;;;;;;5073560;28;20016;-74
2022/03/17 02:43:47;;;;;;;5.63;2.90;;;;;;;;;;5074787;28;20062;-74
2022/03/17 02:46:13;;;;;;;1.88;1.77;;;;;;;;;;5081065;28;20035;-73
2022/03/17 02:48:39;;;;;;;12.73;2.92;;;;;;;;;;5086878;28;20155;-74
2022/03/17 02:51:05;;;;;;;3.00;2.53;;;;;;;;;;5085971;28;20112;-74
2022/03/17 02:53:31;;;;;;;3.33;2.13;;;;;;;;;;5077352;28;20048;-73
2022/03/17 02:55:57;;;;;;;3.35;2.67;;;;;;;;;;5080338;28;20462;-74
2022/03/17 02:58:23;;;;;;;4.60;3.15;;;;;;;;;;5089642;28;20017;-73
2022/03/17 03:00:49;;;;;;;2.40;2.03;;;;;;;;;;5084346;28;20380;-73
2022/03/17 03:03:17;;;;;;;2.42;2.22;;;;;;;;;;5081117;28;20028;-73
2022/03/17 03:05:43;;;;;;;2.78;2.35;;;;;;;;;;5082630;28;20040;-73
2022/03/17 03:08:09;;;;;;;2.35;1.60;;;;;;;;;;5090664;28;20047;-73
2022/03/17 03:10:34;;;;;;;3.60;2.13;;;;;;;;;;5088168;28;20028;-73
2022/03/17 03:13:00;;;;;;;2.15;2.00;;;;;;;;;;5075070;28;20502;-74
2022/03/17 03:15:27;;;;;;;2.40;0.85;;;;;;;;;;5078891;28;20043;-73
2022/03/17 03:17:55;;;;;;;3.45;3.15;;;;;;;;;;5088624;28;20016;-73
2022/03/17 03:20:21;;;;;;;2.00;1.35;;;;;;;;;;5084806;28;20031;-73
2022/03/17 03:22:47;;;;;;;8.02;3.30;;;;;;;;;;5087134;28;20028;-73
2022/03/17 03:25:13;;;;;;;4.32;3.88;;;;;;;;;;5088120;28;20020;-73
2022/03/17 03:27:40;;;;;;;4.50;3.42;;;;;;;;;;5077484;28;20505;-73
2022/03/17 03:30:06;;;;;;;2.83;2.35;;;;;;;;;;5084006;28;20094;-73
2022/03/17 03:32:32;;;;;;;7.65;3.03;;;;;;;;;;5089088;28;20067;-73
2022/03/17 03:34:58;;;;;;;4.20;2.20;;;;;;;;;;5080338;28;20044;-73
2022/03/17 03:37:24;;;;;;;4.93;1.58;;;;;;;;;;5078580;28;20043;-74
2022/03/17 03:39:54;;;;;;;3.55;3.25;;;;;;;;;;5080689;28;20023;-73
2022/03/17 03:42:20;;;;;;;0.82;0.73;;;;;;;;;;5070616;28;20029;-74
2022/03/17 03:44:47;;;;;;;0.68;0.68;;;;;;;;;;5082918;28;20028;-74
2022/03/17 03:47:13;;;;;;;2.00;1.88;;;;;;;;;;5073459;28;20544;-74
2022/03/17 03:49:39;;;;;;;7.55;3.45;;;;;;;;;;5079703;28;20071;-74
2022/03/17 03:52:08;;;;;;;7.95;3.10;;;;;;;;;;5081703;28;20017;-74
2022/03/17 03:54:34;;;;;;;5.40;3.55;;;;;;;;;;5083822;28;20031;-74
2022/03/17 03:57:01;;;;;;;2.25;1.98;;;;;;;;;;5077933;28;20029;-74
2022/03/17 03:59:30;;;;;;;1.73;1.63;;;;;;;;;;5079412;28;20040;-74
2022/03/17 04:01:58;;;;;;;4.32;2.83;;;;;;;;;;5069644;28;20043;-74
2022/03/17 04:04:24;;;;;;;5.25;2.92;;;;;;;;;;5076086;28;20028;-74
2022/03/17 04:06:51;;;;;;;4.60;3.45;;;;;;;;;;5078209;28;20056;-75
2022/03/17 04:09:19;;;;;;;2.08;1.92;;;;;;;;;;5080630;28;20029;-75
2022/03/17 04:11:45;;;;;;;1.13;1.10;;;;;;;;;;5081343;28;20020;-74
2022/03/17 04:14:12;;;;;;;2.97;1.35;;;;;;;;;;5077065;28;20115;-74
2022/03/17 04:16:38;;;;;;;2.67;2.42;;;;;;;;;;5086283;28;20020;-75
2022/03/17 04:19:04;;;;;;;5.82;2.75;;;;;;;;;;5084364;28;20035;-74
2022/03/17 04:21:30;;;;;;;5.05;2.75;;;;;;;;;;5081428;28;20028;-74
2022/03/17 04:23:56;;;;;;;1.13;1.13;;;;;;;;;;5080568;28;20024;-74
2022/03/17 04:26:22;;;;;;;9.15;3.97;;;;;;;;;;5089351;28;20027;-74
2022/03/17 04:28:48;;;;;;;4.13;3.10;;;;;;;;;;5077128;28;20058;-74
2022/03/17 04:31:14;;;;;;;10.73;2.03;;;;;;;;;;5085689;28;20508;-74
2022/03/17 04:33:40;;;;;;;4.97;2.28;;;;;;;;;;5076816;28;20482;-75
2022/03/17 04:36:07;;;;;;;2.85;1.73;;;;;;;;;;5077334;28;20040;-74
2022/03/17 04:38:34;;;;;;;2.75;2.55;;;;;;;;;;5075733;28;20033;-74
2022/03/17 04:40:59;;;;;;;2.25;2.08;;;;;;;;;;5081968;28;20259;-74
2022/03/17 04:43:26;;;;;;;2.25;2.05;;;;;;;;;;5080243;28;20106;-74
2022/03/17 04:45:52;;;;;;;1.05;1.00;;;;;;;;;;5079879;28;20698;-74
2022/03/17 04:48:17;;;;;;;4.65;3.13;;;;;;;;;;5072336;28;20483;-74
2022/03/17 04:50:44;;;;;;;2.65;2.45;;;;;;;;;;5079028;28;20127;-74
2022/03/17 04:53:29;;;;;;;7.63;3.13;;;;;;;;;;5083335;28;20339;-74
2022/03/17 04:55:55;;;;;;;2.15;1.77;;;;;;;;;;5079385;28;20020;-75
2022/03/17 04:58:21;;;;;;;3.53;2.50;;;;;;;;;;5086681;28;20058;-75
2022/03/17 05:00:47;;;;;;;6.85;3.33;;;;;;;;;;5086033;28;20016;-74
2022/03/17 05:03:14;;;;;;;3.20;2.28;;;;;;;;;;5082787;28;20063;-74
2022/03/17 05:05:40;;;;;;;4.60;4.05;;;;;;;;;;5079241;28;20032;-74
2022/03/17 05:08:07;;;;;;;3.22;2.17;;;;;;;;;;5071911;28;20045;-74
2022/03/17 05:10:37;;;;;;;3.28;2.97;;;;;;;;;;5068997;28;20033;-73
2022/03/17 05:13:07;;;;;;;3.97;2.28;;;;;;;;;;5080828;28;20477;-74
2022/03/17 05:15:33;;;;;;;1.55;1.45;;;;;;;;;;5083408;28;20032;-74
2022/03/17 05:17:59;;;;;;;5.05;3.10;;;;;;;;;;5072483;28;20047;-74
2022/03/17 05:20:25;;;;;;;4.03;2.20;;;;;;;;;;5078884;28;20423;-74
2022/03/17 05:22:51;;;;;;;4.18;3.25;;;;;;;;;;5078343;28;20077;-74
2022/03/17 05:25:17;;;;;;;13.18;2.70;;;;;;;;;;5072977;28;20035;-74
2022/03/17 05:27:44;;;;;;;6.15;3.83;;;;;;;;;;5070165;28;20016;-74
2022/03/17 05:30:13;;;;;;;3.83;3.05;;;;;;;;;;5079203;28;20016;-74
2022/03/17 05:32:39;;;;;;;2.05;1.85;;;;;;;;;;5079169;28;20379;-74
2022/03/17 05:35:05;;;;;;;4.88;3.78;;;;;;;;;;5081639;28;20028;-74
2022/03/17 05:37:31;;;;;;;1.23;1.17;;;;;;;;;;5080528;28;20024;-73
2022/03/17 05:39:57;;;;;;;4.03;1.73;;;;;;;;;;5086480;28;20382;-73
2022/03/17 05:42:23;;;;;;;2.47;1.88;;;;;;;;;;5078750;28;20081;-74
2022/03/17 05:44:50;;;;;;;1.75;1.65;;;;;;;;;;5078697;28;20077;-73
2022/03/17 05:47:16;;;;;;;7.70;2.67;;;;;;;;;;5076035;28;20040;-73
2022/03/17 05:49:42;;;;;;;5.63;3.47;;;;;;;;;;5078984;28;20020;-74
2022/03/17 05:52:08;;;;;;;4.00;3.63;;;;;;;;;;5074596;28;20040;-73
2022/03/17 05:54:34;;;;;;;4.53;2.45;;;;;;;;;;5074109;28;20021;-74
2022/03/17 05:57:00;;;;;;;5.38;4.32;;;;;;;;;;5077456;28;20027;-73
2022/03/17 05:59:26;;;;;;;2.63;2.42;;;;;;;;;;5076535;28;20363;-74
2022/03/17 06:01:52;;;;;;;1.60;1.52;;;;;;;;;;5076089;28;20036;-74
2022/03/17 06:04:17;;;;;;;6.57;4.28;;;;;;;;;;5075952;28;20028;-73
2022/03/17 06:06:43;;;;;;;2.40;2.25;;;;;;;;;;5081265;28;20463;-74
2022/03/17 06:09:09;;;;;;;1.90;1.77;;;;;;;;;;5085630;28;20016;-74
2022/03/17 06:11:35;;;;;;;6.35;3.80;;;;;;;;;;5083969;28;20027;-73
2022/03/17 06:14:01;;;;;;;2.25;2.13;;;;;;;;;;5085196;28;20047;-74
2022/03/17 06:16:28;;;;;;;3.42;2.75;;;;;;;;;;5078144;28;20020;-74
2022/03/17 06:18:53;;;;;;;3.97;2.92;;;;;;;;;;5085915;28;20110;-74
2022/03/17 06:21:19;;;;;;;5.85;3.75;;;;;;;;;;5071211;28;20618;-74
2022/03/17 06:23:45;;;;;;;3.58;3.17;;;;;;;;;;5073565;28;20009;-73
2022/03/17 06:26:11;;;;;;;11.05;3.92;;;;;;;;;;5074995;28;20028;-74
2022/03/17 06:28:37;;;;;;;3.58;3.10;;;;;;;;;;5078468;28;20174;-73
2022/03/17 06:31:03;;;;;;;2.40;1.95;;;;;;;;;;5075577;28;20036;-74
2022/03/17 06:33:31;;;;;;;8.77;4.82;;;;;;;;;;5074773;28;20027;-74
2022/03/17 06:35:58;;;;;;;4.57;3.88;;;;;;;;;;5080549;28;20024;-74
2022/03/17 06:38:23;;;;;;;3.95;3.08;;;;;;;;;;5074273;28;20162;-80
2022/03/17 06:40:49;;;;;;;2.97;2.63;;;;;;;;;;5079396;28;20111;-74
2022/03/17 06:43:16;;;;;;;7.93;3.38;;;;;;;;;;5074485;28;20024;-74
2022/03/17 06:45:43;;;;;;;11.88;3.78;;;;;;;;;;5073665;28;20033;-74
2022/03/17 06:48:08;;;;;;;6.78;4.57;;;;;;;;;;5077528;28;20032;-73
2022/03/17 06:50:34;;;;;;;4.78;3.47;;;;;;;;;;5077886;28;20114;-78
2022/03/17 06:53:00;;;;;;;3.88;3.58;;;;;;;;;;5077060;28;20032;-75
2022/03/17 06:55:26;;;;;;;6.30;3.38;;;;;;;;;;5085887;28;20428;-75
2022/03/17 06:57:53;;;;;;;5.60;3.17;;;;;;;;;;5082422;28;20027;-75
2022/03/17 07:00:19;;;;;;;4.35;3.28;;;;;;;;;;5071897;28;20028;-75
2022/03/17 07:02:45;;;;;;;5.90;3.03;;;;;;;;;;5077221;28;20028;-75
2022/03/17 07:05:11;;;;;;;5.97;3.55;;;;;;;;;;5073342;28;20115;-74
2022/03/17 07:07:37;;;;;;;11.32;5.05;;;;;;;;;;5068504;28;20051;-78
2022/03/17 07:10:06;;;;;;;4.28;3.85;;;;;;;;;;5074096;28;20024;-72
2022/03/17 07:12:32;;;;;;;8.85;5.25;;;;;;;;;;5080126;28;20040;-73
2022/03/17 07:14:58;;;;;;;2.30;2.10;;;;;;;;;;5073004;28;20486;-73
2022/03/17 07:17:24;;;;;;;6.32;4.13;;;;;;;;;;5083065;28;20430;-73
2022/03/17 07:22:23;;;;;;;3.85;3.42;;;;;;;;;;5079829;28;20020;-74
2022/03/17 07:24:49;;;;;;;3.80;3.50;;;;;;;;;;5069619;28;20489;-73
2022/03/17 07:27:15;;;;;;;10.70;5.07;;;;;;;;;;5077796;28;20028;-74
2022/03/17 07:29:41;;;;;;;6.03;3.60;;;;;;;;;;5069059;28;20098;-73
2022/03/17 07:32:07;;;;;;;3.90;3.53;;;;;;;;;;5075260;28;20032;-73
2022/03/17 07:34:33;;;;;;;8.88;3.60;;;;;;;;;;5077378;28;20505;-73
2022/03/17 07:36:59;;;;;;;7.50;3.35;;;;;;;;;;5081865;28;20039;-73
2022/03/17 07:39:25;;;;;;;3.88;3.20;;;;;;;;;;5076521;28;20485;-74
2022/03/17 07:41:51;;;;;;;4.85;4.00;;;;;;;;;;5075809;28;20012;-71
2022/03/17 07:44:17;;;;;;;4.57;3.75;;;;;;;;;;5071362;28;20024;-71
2022/03/17 07:46:43;;;;;;;3.30;3.00;;;;;;;;;;5068071;28;20056;-72
2022/03/17 07:49:08;;;;;;;4.70;4.35;;;;;;;;;;5078121;28;20723;-71
2022/03/17 07:51:36;;;;;;;4.28;3.47;;;;;;;;;;5080313;28;20044;-72
2022/03/17 07:54:02;;;;;;;11.15;5.15;;;;;;;;;;5080246;28;20020;-71
2022/03/17 07:56:28;;;;;;;3.88;3.45;;;;;;;;;;5079356;28;20084;-72
2022/03/17 07:58:54;;;;;;;11.60;3.67;;;;;;;;;;5079216;28;20066;-71
2022/03/17 08:01:24;;;;;;;6.97;3.30;;;;;;;;;;5073400;28;20055;-72
2022/03/17 08:03:50;;;;;;;9.85;3.97;;;;;;;;;;5075444;28;20118;-72
2022/03/17 08:06:16;;;;;;;4.28;3.58;;;;;;;;;;5076708;28;20737;-72
2022/03/17 08:08:41;;;;;;;2.60;2.38;;;;;;;;;;5079053;28;20646;-71
2022/03/17 08:11:08;;;;;;;1.80;1.70;;;;;;;;;;5070952;28;20456;-72
2022/03/17 08:13:34;;;;;;;8.52;4.07;;;;;;;;;;5067606;28;20078;-72
2022/03/17 08:16:12;;;;;;;2.63;2.42;;;;;;;;;;5079978;28;20045;-72
2022/03/17 08:18:38;;;;;;;3.22;2.90;;;;;;;;;;5075668;28;20051;-72
2022/03/17 08:21:05;;;;;;;8.60;4.10;;;;;;;;;;5079567;28;20077;-72
2022/03/17 08:23:30;;;;;;;7.80;4.03;;;;;;;;;;5078878;28;20089;-72
2022/03/17 08:25:56;;;;;;;3.28;2.70;;;;;;;;;;5071251;28;20021;-72
2022/03/17 08:28:24;;;;;;;4.32;3.35;;;;;;;;;;5074422;28;20032;-72
2022/03/17 08:30:51;;;;;;;3.10;2.83;;;;;;;;;;5069833;28;20453;-72
2022/03/17 08:33:17;;;;;;;4.70;2.55;;;;;;;;;;5065154;28;20025;-72
2022/03/17 08:35:44;;;;;;;4.78;3.05;;;;;;;;;;5065940;28;20028;-72
2022/03/17 08:38:10;;;;;;;17.55;6.10;;;;;;;;;;5072664;28;20032;-72
2022/03/17 08:40:38;;;;;;;3.50;3.08;;;;;;;;;;5069301;28;20394;-73
2022/03/17 08:43:04;;;;;;;3.88;2.33;;;;;;;;;;5085503;28;20058;-72
2022/03/17 08:51:00;;;;;;;6.75;2.78;;;;;;;;;;5077354;28;20039;-72
2022/03/17 08:53:26;;;;;;;6.43;4.90;;;;;;;;;;5083184;28;20023;-72
2022/03/17 08:55:52;;;;;;;10.50;4.38;;;;;;;;;;5074793;28;20028;-72
2022/03/17 08:58:18;;;;;;;8.80;6.72;;;;;;;;;;5073461;28;20032;-72
2022/03/17 09:00:44;;;;;;;5.30;4.45;;;;;;;;;;5072078;28;20449;-72
2022/03/17 09:03:10;;;;;;;6.28;5.03;;;;;;;;;;5080836;28;20028;-72
2022/03/17 09:05:36;;;;;;;9.15;4.38;;;;;;;;;;5067328;28;20024;-72
2022/03/17 09:08:04;;;;;;;3.92;3.63;;;;;;;;;;5084848;28;20486;-72
2022/03/17 09:10:30;;;;;;;9.05;3.38;;;;;;;;;;5075187;28;20112;-72
2022/03/17 09:12:57;;;;;;;4.15;2.90;;;;;;;;;;5079423;28;20062;-72
2022/03/17 09:15:23;;;;;;;4.95;4.40;;;;;;;;;;5072241;28;20033;-73
2022/03/17 09:17:49;;;;;;;6.75;3.40;;;;;;;;;;5086679;28;20053;-72
2022/03/17 09:20:15;;;;;;;3.08;2.88;;;;;;;;;;5082153;28;20028;-73
2022/03/17 09:22:42;;;;;;;4.07;3.80;;;;;;;;;;5086585;28;20027;-72
2022/03/17 09:25:08;;;;;;;11.27;4.38;;;;;;;;;;5083482;28;20024;-72
2022/03/17 09:27:34;;;;;;;4.50;4.15;;;;;;;;;;5075973;28;20024;-72
2022/03/17 09:30:00;;;;;;;13.25;4.65;;;;;;;;;;5067590;28;20437;-71
2022/03/17 09:32:26;;;;;;;3.75;2.97;;;;;;;;;;5082436;28;20497;-72
2022/03/17 09:34:52;;;;;;;6.40;3.85;;;;;;;;;;5070977;28;20040;-72
2022/03/17 09:37:18;;;;;;;21.27;5.22;;;;;;;;;;5081560;28;20035;-72
2022/03/17 09:39:45;;;;;;;2.92;2.70;;;;;;;;;;5075826;28;20028;-72
2022/03/17 09:42:14;;;;;;;5.95;2.47;;;;;;;;;;5082293;28;20024;-72
2022/03/17 09:44:40;;;;;;;12.20;4.45;;;;;;;;;;5082345;28;20077;-72
2022/03/17 09:47:09;;;;;;;6.97;5.18;;;;;;;;;;5087492;28;20115;-72
2022/03/17 09:49:37;;;;;;;6.50;3.05;;;;;;;;;;5086369;28;20566;-72
2022/03/17 09:52:05;;;;;;;3.85;3.35;;;;;;;;;;5079923;28;20032;-72
2022/03/17 09:54:35;;;;;;;4.07;3.47;;;;;;;;;;5070732;28;20044;-71
2022/03/17 09:57:01;;;;;;;3.10;2.85;;;;;;;;;;5086171;28;20074;-71
2022/03/17 09:59:27;;;;;;;5.95;3.88;;;;;;;;;;5071730;28;20028;-72
2022/03/17 10:01:53;;;;;;;4.18;3.90;;;;;;;;;;5080549;28;20031;-72
2022/03/17 10:04:19;;;;;;;2.63;2.42;;;;;;;;;;5073926;28;20067;-71
2022/03/17 10:06:45;;;;;;;3.55;3.25;;;;;;;;;;5082692;28;20055;-72
2022/03/17 10:09:11;;;;;;;5.78;2.78;;;;;;;;;;5079451;28;20028;-72
2022/03/17 10:11:37;;;;;;;7.55;2.70;;;;;;;;;;5081066;28;20032;-71
2022/03/17 10:14:05;;;;;;;4.72;2.85;;;;;;;;;;5075853;28;20475;-71
2022/03/17 10:16:31;;;;;;;9.68;5.43;;;;;;;;;;5066560;28;20094;-71
2022/03/17 10:18:59;;;;;;;7.22;4.38;;;;;;;;;;5075630;28;20059;-72
2022/03/17 10:21:27;;;;;;;5.22;4.70;;;;;;;;;;5070798;28;20509;-71
2022/03/17 10:23:59;;;;;;;4.03;2.58;;;;;;;;;;5082302;28;20032;-71
2022/03/17 10:26:32;;;;;;;3.97;3.50;;;;;;;;;;5067463;28;20036;-72
2022/03/17 10:29:15;;;;;;;6.10;4.35;;;;;;;;;;5080463;28;20111;-72
2022/03/17 10:31:50;;;;;;;2.22;2.00;;;;;;;;;;5075063;28;20020;-72
2022/03/17 10:34:17;;;;;;;6.07;3.10;;;;;;;;;;5066535;28;20028;-71
2022/03/17 10:36:45;;;;;;;6.25;3.50;;;;;;;;;;5071615;28;20086;-71
2022/03/17 10:39:11;;;;;;;3.42;2.97;;;;;;;;;;5073334;28;20035;-72
2022/03/17 10:41:44;;;;;;;19.27;5.90;;;;;;;;;;5082684;28;20028;-72
2022/03/17 10:44:11;;;;;;;2.45;2.28;;;;;;;;;;5082900;28;20028;-71
2022/03/17 10:46:37;;;;;;;7.80;2.97;;;;;;;;;;5069488;28;20115;-71
2022/03/17 10:49:05;;;;;;;4.93;4.45;;;;;;;;;;5078770;28;20131;-72
2022/03/17 10:51:37;;;;;;;3.60;3.30;;;;;;;;;;5066141;28;20028;-70
2022/03/17 10:54:04;;;;;;;9.77;4.22;;;;;;;;;;5077170;28;20119;-72
2022/03/17 10:56:30;;;;;;;3.50;3.20;;;;;;;;;;5069683;28;20039;-72
2022/03/17 10:58:56;;;;;;;6.20;3.53;;;;;;;;;;5083756;28;20017;-72
2022/03/17 11:01:35;;;;;;;4.40;3.97;;;;;;;;;;5084935;28;20027;-72
2022/03/17 11:04:01;;;;;;;4.28;3.28;;;;;;;;;;5065345;28;20467;-73
2022/03/17 11:06:28;;;;;;;13.13;4.95;;;;;;;;;;5066151;28;20458;-72
2022/03/17 11:08:54;;;;;;;9.45;5.60;;;;;;;;;;5076235;28;20028;-72
2022/03/17 11:11:21;;;;;;;8.90;4.55;;;;;;;;;;5080028;28;20675;-73
2022/03/17 11:13:47;;;;;;;6.57;4.50;;;;;;;;;;5086720;28;20465;-71
2022/03/17 11:16:14;;;;;;;4.35;3.88;;;;;;;;;;5071010;28;20036;-72
2022/03/17 11:18:41;;;;;;;10.63;3.45;;;;;;;;;;5074365;28;20782;-72
2022/03/17 11:21:13;;;;;;;4.72;3.10;;;;;;;;;;5080426;28;20605;-72
2022/03/17 11:23:56;;;;;;;6.10;4.78;;;;;;;;;;5070535;28;20615;-72
2022/03/17 11:26:31;;;;;;;6.40;3.13;;;;;;;;;;5066695;28;20033;-72
2022/03/17 11:29:04;;;;;;;7.07;3.67;;;;;;;;;;5076646;28;20042;-73
2022/03/17 11:31:48;;;;;;;3.70;3.40;;;;;;;;;;5065340;28;20048;-72
2022/03/17 11:34:15;;;;;;;6.57;4.70;;;;;;;;;;5082874;28;20028;-72
2022/03/17 11:37:01;;;;;;;4.80;3.35;;;;;;;;;;5071661;28;20017;-73
2022/03/17 11:39:27;;;;;;;13.25;3.85;;;;;;;;;;5070928;28;20048;-72
2022/03/17 11:41:53;;;;;;;11.10;5.15;;;;;;;;;;5077074;28;20499;-72
2022/03/17 11:44:31;;;;;;;4.15;2.30;;;;;;;;;;5069246;28;20043;-72
2022/03/17 11:46:57;;;;;;;7.03;4.85;;;;;;;;;;5078037;28;20031;-72
2022/03/17 11:49:23;;;;;;;9.23;4.07;;;;;;;;;;5066864;28;20032;-72
2022/03/17 11:52:09;;;;;;;5.97;3.13;;;;;;;;;;5072834;28;20024;-73
2022/03/17 11:54:35;;;;;;;4.20;2.97;;;;;;;;;;5072374;28;20451;-73
2022/03/17 11:57:05;;;;;;;3.42;2.53;;;;;;;;;;5069958;28;20055;-72
2022/03/17 11:59:54;;;;;;;4.07;3.63;;;;;;;;;;5072784;28;20035;-73
2022/03/17 12:02:21;;;;;;;3.03;2.13;;;;;;;;;;5062092;28;20024;-72
2022/03/17 12:04:48;;;;;;;12.20;5.72;;;;;;;;;;5063191;28;20032;-73
2022/03/17 12:07:16;;;;;;;6.30;3.75;;;;;;;;;;5070462;28;20044;-72
2022/03/17 12:09:42;;;;;;;3.92;3.33;;;;;;;;;;5061336;28;20052;-71
2022/03/17 12:12:18;;;;;;;5.35;2.25;;;;;;;;;;5066309;28;20387;-71
2022/03/17 12:14:49;;;;;;;7.75;5.22;;;;;;;;;;5079508;28;20024;-72
2022/03/17 12:17:19;;;;;;;8.85;4.45;;;;;;;;;;5067907;28;20513;-72
2022/03/17 12:19:49;;;;;;;5.60;3.53;;;;;;;;;;5070162;28;20066;-72
2022/03/17 12:22:16;;;;;;;12.70;5.53;;;;;;;;;;5075324;28;20039;-71
2022/03/17 12:24:48;;;;;;;8.80;4.70;;;;;;;;;;5078611;28;20032;-71
2022/03/17 12:27:22;;;;;;;5.60;4.68;;;;;;;;;;5076904;28;20525;-71
2022/03/17 12:29:49;;;;;;;5.95;3.75;;;;;;;;;;5081889;28;20162;-72
2022/03/17 12:32:16;;;;;;;10.20;5.35;;;;;;;;;;5071596;28;20024;-72
2022/03/17 12:34:50;;;;;;;6.03;2.47;;;;;;;;;;5062327;28;20067;-71
2022/03/17 12:37:17;;;;;;;5.07;3.50;;;;;;;;;;5066171;28;20066;-71
2022/03/17 12:39:47;;;;;;;8.75;3.70;;;;;;;;;;5064927;28;20097;-71
2022/03/17 12:42:17;;;;;;;4.28;3.63;;;;;;;;;;5073176;28;20071;-71
2022/03/17 12:44:50;;;;;;;11.00;4.82;;;;;;;;;;5068402;28;20024;-71
2022/03/17 12:47:18;;;;;;;9.50;2.85;;;;;;;;;;5072373;28;20402;-72
2022/03/17 12:49:43;;;;;;;2.75;2.53;;;;;;;;;;5078230;28;20035;-72
2022/03/17 12:52:20;;;;;;;4.35;3.95;;;;;;;;;;5076473;28;20036;-72
2022/03/17 12:54:46;;;;;;;5.78;3.38;;;;;;;;;;5074655;28;20128;-72
2022/03/17 12:57:12;;;;;;;7.43;2.85;;;;;;;;;;5059234;28;20100;-71
2022/03/17 12:59:38;;;;;;;6.40;3.15;;;;;;;;;;5076746;28;20024;-71
2022/03/17 13:02:06;;;;;;;3.50;3.17;;;;;;;;;;5076433;28;20023;-71
2022/03/17 13:04:31;;;;;;;1.95;1.85;;;;;;;;;;5081567;28;20024;-72
2022/03/17 13:06:57;;;;;;;2.80;2.60;;;;;;;;;;5071870;28;20044;-72
2022/03/17 13:09:28;;;;;;;3.40;3.10;;;;;;;;;;5078694;28;20474;-72
2022/03/17 13:14:50;;;;;;;6.25;3.13;;;;;;;;;;5081965;28;20134;-72
2022/03/17 13:17:38;;;;;;;2.50;2.10;;;;;;;;;;5077431;28;20633;-72
2022/03/17 13:20:08;;;;;;;3.35;3.08;;;;;;;;;;5065568;28;20028;-77
2022/03/17 13:22:34;;;;;;;3.50;2.42;;;;;;;;;;5061697;28;20065;-71
2022/03/17 13:25:22;;;;;;;3.75;2.90;;;;;;;;;;5061979;28;20031;-71
2022/03/17 13:27:55;;;;;;;8.20;3.95;;;;;;;;;;5079988;28;20020;-71
2022/03/17 13:30:21;;;;;;;5.45;3.03;;;;;;;;;;5071876;28;20394;-70
2022/03/17 13:32:56;;;;;;;6.38;5.03;;;;;;;;;;5078313;28;20039;-70
2022/03/17 13:35:22;;;;;;;3.75;2.35;;;;;;;;;;5074692;28;20036;-70
2022/03/17 13:37:50;;;;;;;6.60;4.70;;;;;;;;;;5075603;28;20032;-69
2022/03/17 13:40:17;;;;;;;4.22;3.10;;;;;;;;;;5075277;28;20032;-70
2022/03/17 13:43:02;;;;;;;8.40;3.47;;;;;;;;;;5074005;28;20035;-70
2022/03/17 13:45:32;;;;;;;7.05;3.10;;;;;;;;;;5075970;28;20040;-71
2022/03/17 13:48:08;;;;;;;4.07;2.47;;;;;;;;;;5069939;28;20078;-72
2022/03/17 13:50:41;;;;;;;3.40;3.08;;;;;;;;;;5076492;28;20012;-71
2022/03/17 13:53:07;;;;;;;2.88;2.67;;;;;;;;;;5074693;28;20021;-72
2022/03/17 13:55:33;;;;;;;3.50;2.28;;;;;;;;;;5085241;28;20038;-72
2022/03/17 13:58:10;;;;;;;3.00;2.75;;;;;;;;;;5080127;28;20039;-71
2022/03/17 14:00:36;;;;;;;1.85;1.73;;;;;;;;;;5083184;28;20020;-73
2022/03/17 14:03:11;;;;;;;4.13;2.45;;;;;;;;;;5079429;28;20077;-70
2022/03/17 14:05:57;;;;;;;4.13;2.25;;;;;;;;;;5078996;28;20024;-70
2022/03/17 14:08:23;;;;;;;7.35;5.20;;;;;;;;;;5086830;28;20127;-70
2022/03/17 14:10:49;;;;;;;3.38;2.75;;;;;;;;;;5086364;28;20523;-68
2022/03/17 14:13:15;;;;;;;8.32;3.92;;;;;;;;;;5087915;28;20056;-69
2022/03/17 14:15:41;;;;;;;9.60;5.03;;;;;;;;;;5083700;28;20052;-71
2022/03/17 14:18:07;;;;;;;6.53;3.83;;;;;;;;;;5085625;28;20040;-72
2022/03/17 14:20:33;;;;;;;4.97;2.78;;;;;;;;;;5084648;28;20465;-71
2022/03/17 14:25:45;;;;;;;6.75;3.95;;;;;;;;;;5088120;28;20113;-71
2022/03/17 14:28:11;;;;;;;3.95;2.85;;;;;;;;;;5083206;28;20028;-69
2022/03/17 14:30:37;;;;;;;3.33;2.88;;;;;;;;;;5086246;28;20748;-71
2022/03/17 14:33:03;;;;;;;3.00;2.78;;;;;;;;;;5081182;28;20032;-73
2022/03/17 14:35:29;;;;;;;2.42;2.20;;;;;;;;;;5086888;28;20032;-72
2022/03/17 14:37:55;;;;;;;3.78;3.22;;;;;;;;;;5086111;28;20398;-73
2022/03/17 14:40:21;;;;;;;4.65;2.92;;;;;;;;;;5088592;28;20452;-72
2022/03/17 14:42:49;;;;;;;3.10;2.75;;;;;;;;;;5088184;28;20028;-72
2022/03/17 14:45:15;;;;;;;5.35;3.95;;;;;;;;;;5085258;28;20028;-71
2022/03/17 14:47:40;;;;;;;2.35;2.17;;;;;;;;;;5085188;28;20414;-71
2022/03/17 14:50:07;;;;;;;11.60;4.35;;;;;;;;;;5083022;28;20063;-72
2022/03/17 14:52:33;;;;;;;10.85;1.90;;;;;;;;;;5088581;28;20020;-71
2022/03/17 14:54:59;;;;;;;14.35;4.53;;;;;;;;;;5085849;28;20024;-72
2022/03/17 14:57:24;;;;;;;2.83;2.50;;;;;;;;;;5083906;28;20543;-72
2022/03/17 14:59:51;;;;;;;8.43;2.08;;;;;;;;;;5085150;28;20028;-71
2022/03/17 15:02:17;;;;;;;2.22;1.98;;;;;;;;;;5084799;28;20016;-72
2022/03/17 15:04:43;;;;;;;7.55;3.75;;;;;;;;;;5083675;28;20024;-73